»·PEaware :: N622SB KCMA-KSNA

N622SB :: KCMA-KSNA

FLIGHT INFORMATION

Flight Status: Arrived
Operator: Privately registered:
United States
More flights under this callsign
Pilot: Simon B. (27931)
Aircraft: Unknown
(/A)
More flights by this aircraft type
Origin: KCMA Camarillo
United States
Destination: KSNA John Wayne-Orange Co
United States
More flights between these airports :: More routes between these airports
Route: VPSEP LAX VPLVT
File this flight plan on PilotEdge
Remarks: CAT10
Altitude:
(Current/Filed)
5,500ft
Speed:
(Current/Filed)
110kts
Departed: 13-Feb-20 12:54 PM
Arrived: 13-Feb-20 01:42 PM
Distance/Time
Traveled:
69nm/0:48
Distance/Time
To Go:
Arrived

Flight Plot

Page will automatically refresh every two minutes.

Flight plan parsing failed; only flown route is shown


Map Options




Map Legend


Flown Route
Filed Route
Departure Airport
Arrival Airport
Navaid (VOR, NDB)
Fix

Horizontal Profiles

Position Reports

Time Latitude Longitude Heading Altitude Ground
Speed
13-Feb-20 12:36 34.210917 -119.096681 180 78ft 0kts
13-Feb-20 12:37 34.210916 -119.096681 180 78ft 0kts
13-Feb-20 12:38 34.210915 -119.096681 180 78ft 0kts
13-Feb-20 12:39 34.210913 -119.096681 180 78ft 0kts
13-Feb-20 12:40 34.210912 -119.096681 180 78ft 0kts
13-Feb-20 12:41 34.210911 -119.096681 180 78ft 0kts
13-Feb-20 12:42 34.210909 -119.096681 180 78ft 0kts
13-Feb-20 12:43 34.210908 -119.096681 180 78ft 0kts
13-Feb-20 12:44 34.210906 -119.096681 180 78ft 0kts
13-Feb-20 12:45 34.210905 -119.096681 180 78ft 0kts
13-Feb-20 12:46 34.210904 -119.096681 180 78ft 0kts
13-Feb-20 12:46 34.210903 -119.096681 180 78ft 0kts
13-Feb-20 12:48 34.210901 -119.096681 180 78ft 0kts
13-Feb-20 12:49 34.211224 -119.096677 180 78ft 1kts
13-Feb-20 12:49 34.211400 -119.094646 91 78ft 17kts
13-Feb-20 12:50 34.211331 -119.087194 90 78ft 24kts
13-Feb-20 12:52 34.213046 -119.084604 0 78ft 0kts
13-Feb-20 12:52 34.213049 -119.084604 0 78ft 0kts
13-Feb-20 12:53 34.213810 -119.090668 267 144ft 65kts
13-Feb-20 12:54 34.214468 -119.114959 280 1050ft 73kts
13-Feb-20 12:55 34.231967 -119.110581 75 2126ft 81kts
13-Feb-20 12:56 34.232141 -119.083900 90 3228ft 78kts
13-Feb-20 12:57 34.228932 -119.057511 95 4244ft 79kts
13-Feb-20 12:58 34.229187 -119.030515 91 5355ft 81kts
13-Feb-20 12:59 34.229722 -118.995110 89 5599ft 125kts
13-Feb-20 13:00 34.229780 -118.955723 88 5548ft 109kts
13-Feb-20 13:01 34.231853 -118.919557 87 5513ft 107kts
13-Feb-20 13:02 34.233892 -118.883884 88 5501ft 105kts
13-Feb-20 13:03 34.235889 -118.848412 88 5501ft 106kts
13-Feb-20 13:04 34.237745 -118.812581 87 5501ft 106kts
13-Feb-20 13:05 34.238210 -118.777010 91 5507ft 106kts
13-Feb-20 13:06 34.238392 -118.739896 91 5504ft 115kts
13-Feb-20 13:07 34.238568 -118.701649 91 5503ft 109kts
13-Feb-20 13:08 34.238720 -118.665234 91 5502ft 107kts
13-Feb-20 13:09 34.236357 -118.629812 112 5494ft 106kts
13-Feb-20 13:10 34.225148 -118.596703 111 5492ft 108kts
13-Feb-20 13:11 34.209481 -118.566374 154 5493ft 115kts
13-Feb-20 13:12 34.181623 -118.547966 150 5474ft 113kts
13-Feb-20 13:13 34.151986 -118.532624 157 5488ft 121kts
13-Feb-20 13:14 34.120391 -118.517946 156 5486ft 119kts
13-Feb-20 13:15 34.090536 -118.504249 156 5489ft 109kts
13-Feb-20 13:16 34.062484 -118.491502 156 5496ft 108kts
13-Feb-20 13:17 34.032849 -118.477932 157 5502ft 121kts
13-Feb-20 13:18 34.001395 -118.463383 156 5496ft 118kts
13-Feb-20 13:19 33.970861 -118.449386 157 5500ft 117kts
13-Feb-20 13:20 33.940222 -118.435256 156 5498ft 118kts
13-Feb-20 13:21 33.910260 -118.420823 156 5498ft 112kts
13-Feb-20 13:22 33.885427 -118.401147 129 5499ft 106kts
13-Feb-20 13:23 33.865451 -118.372639 129 5507ft 119kts
13-Feb-20 13:24 33.846989 -118.340005 130 5499ft 116kts
13-Feb-20 13:25 33.823466 -118.315290 137 5499ft 107kts
13-Feb-20 13:26 33.800573 -118.291022 137 5501ft 113kts
13-Feb-20 13:27 33.776058 -118.264924 137 5501ft 122kts
13-Feb-20 13:28 33.753662 -118.234622 117 5498ft 121kts
13-Feb-20 13:29 33.750019 -118.196315 93 5491ft 108kts
13-Feb-20 13:30 33.750367 -118.160632 90 5491ft 105kts
13-Feb-20 13:31 33.750822 -118.125464 90 5489ft 105kts
13-Feb-20 13:32 33.749815 -118.090199 93 5489ft 105kts
13-Feb-20 13:33 33.748235 -118.055250 100 5488ft 105kts
13-Feb-20 13:34 33.742292 -118.020850 102 5490ft 105kts
13-Feb-20 13:35 33.735158 -117.986981 105 5485ft 104kts
13-Feb-20 13:36 33.729954 -117.951946 94 4575ft 110kts
13-Feb-20 13:37 33.728109 -117.916619 94 3449ft 101kts
13-Feb-20 13:38 33.726001 -117.883202 102 2324ft 97kts
13-Feb-20 13:39 33.711826 -117.856207 146 1197ft 88kts
13-Feb-20 13:40 33.690899 -117.859152 210 347ft 69kts
13-Feb-20 13:41 33.677534 -117.867677 206 59ft 20kts
13-Feb-20 13:42 33.675699 -117.869620 297 59ft 0kts
13-Feb-20 13:43 33.676031 -117.870225 349 59ft 4kts
13-Feb-20 13:44 33.678978 -117.869438 306 59ft 0kts
13-Feb-20 13:45 33.678978 -117.869438 306 59ft 0kts
13-Feb-20 13:46 33.678978 -117.869438 306 59ft 0kts

Navigation Log

Ident Type
Flight plan parsing failed, navigation log unavailable